Time;durP1;ratioP1;P1;durP2;ratioP2;P2;SDS_P1;SDS_P2;PMS_P1;PMS_P2;Temp;Humidity;BMP_temperature;BMP_pressure;BME280_temperature;BME280_humidity;BME280_pressure;Samples;Min_cycle;Max_cycle;Signal;HPM_P1;HPM_P2
2021/05/22 00:00:28;;;;;;;1.50;1.00;;;12.20;90.60;;;;;;5025621;28;20470;-87
2021/05/22 00:02:54;;;;;;;2.00;1.23;;;12.10;90.50;;;;;;5026195;28;20473;-87
2021/05/22 00:05:21;;;;;;;1.30;0.80;;;12.10;90.70;;;;;;5026844;28;20452;-87
2021/05/22 00:07:47;;;;;;;1.10;0.80;;;12.10;90.70;;;;;;5026787;28;20435;-87
2021/05/22 00:10:15;;;;;;;1.90;1.13;;;12.10;90.80;;;;;;5026755;28;20520;-87
2021/05/22 00:12:42;;;;;;;1.43;0.97;;;12.10;90.90;;;;;;5026919;28;20461;-87
2021/05/22 00:15:11;;;;;;;1.47;1.00;;;12.10;90.80;;;;;;5024535;28;20810;-87
2021/05/22 00:17:37;;;;;;;3.17;1.00;;;12.10;90.70;;;;;;5025729;28;20434;-86
2021/05/22 00:20:05;;;;;;;1.27;1.10;;;12.10;90.40;;;;;;5025631;28;20925;-86
2021/05/22 00:22:31;;;;;;;2.67;0.70;;;12.10;90.30;;;;;;5026602;28;20474;-87
2021/05/22 00:24:58;;;;;;;2.17;1.00;;;12.10;90.20;;;;;;5025455;28;20489;-86
2021/05/22 00:27:25;;;;;;;1.90;1.10;;;12.10;90.20;;;;;;5025731;28;20436;-87
2021/05/22 00:29:51;;;;;;;2.87;0.93;;;12.10;90.10;;;;;;5045766;28;20437;-86
2021/05/22 00:32:18;;;;;;;3.50;1.20;;;12.00;89.50;;;;;;5042305;28;21197;-87
2021/05/22 00:34:44;;;;;;;1.63;1.00;;;12.00;89.20;;;;;;5028429;28;20814;-86
2021/05/22 00:37:10;;;;;;;3.73;1.20;;;12.00;89.60;;;;;;5027152;28;20468;-87
2021/05/22 00:39:36;;;;;;;2.27;0.90;;;12.00;89.70;;;;;;5044742;28;20442;-87
2021/05/22 00:42:04;;;;;;;0.80;0.60;;;11.90;88.70;;;;;;5032395;28;20482;-87
2021/05/22 00:44:32;;;;;;;1.80;1.10;;;11.90;89.00;;;;;;5027066;28;20445;-87
2021/05/22 00:46:58;;;;;;;1.90;0.90;;;11.90;88.50;;;;;;5026876;28;20453;-87
2021/05/22 00:49:24;;;;;;;2.50;0.90;;;11.90;88.60;;;;;;5025040;28;20449;-87
2021/05/22 00:51:51;;;;;;;1.70;0.77;;;11.80;88.40;;;;;;5041862;28;20465;-86
2021/05/22 00:54:18;;;;;;;1.93;0.70;;;11.80;88.30;;;;;;5032377;28;20531;-87
2021/05/22 00:56:45;;;;;;;1.90;1.40;;;11.70;88.50;;;;;;5024940;28;20449;-87
2021/05/22 00:59:15;;;;;;;3.40;0.80;;;11.60;88.80;;;;;;5045148;28;20466;-87
2021/05/22 01:01:43;;;;;;;0.90;0.63;;;11.60;88.90;;;;;;5040020;28;20557;-87
2021/05/22 01:04:10;;;;;;;1.23;0.80;;;11.60;89.40;;;;;;5027048;28;20446;-87
2021/05/22 01:06:37;;;;;;;0.70;0.70;;;11.60;89.40;;;;;;5026133;28;20490;-86
2021/05/22 01:09:08;;;;;;;1.17;1.00;;;11.60;89.40;;;;;;5034202;28;20531;-87
2021/05/22 01:11:40;;;;;;;3.20;0.93;;;11.60;89.70;;;;;;5049785;28;20465;-86
2021/05/22 01:14:11;;;;;;;1.50;1.07;;;11.50;89.80;;;;;;5040518;28;20434;-87
2021/05/22 01:16:39;;;;;;;1.20;1.00;;;11.50;90.00;;;;;;5040425;28;20428;-86
2021/05/22 01:19:08;;;;;;;1.07;0.70;;;11.50;90.10;;;;;;5038433;28;20442;-87
2021/05/22 01:21:38;;;;;;;2.07;0.93;;;11.50;90.20;;;;;;5024500;28;20509;-87
2021/05/22 01:24:09;;;;;;;2.63;0.80;;;11.50;90.30;;;;;;5024340;28;20835;-87
2021/05/22 01:26:37;;;;;;;1.60;0.90;;;11.50;90.40;;;;;;5024400;28;20445;-87
2021/05/22 01:29:04;;;;;;;2.27;1.10;;;11.50;90.40;;;;;;5024263;28;20458;-87
2021/05/22 01:31:33;;;;;;;1.40;0.70;;;11.50;90.60;;;;;;5022896;28;20474;-87
2021/05/22 01:34:00;;;;;;;1.83;0.93;;;11.50;90.60;;;;;;5043788;28;20430;-87
2021/05/22 01:36:27;;;;;;;2.73;0.80;;;11.60;90.60;;;;;;5041179;28;20930;-87
2021/05/22 01:38:53;;;;;;;1.77;1.10;;;11.50;90.60;;;;;;5043353;28;20421;-87
2021/05/22 01:41:19;;;;;;;2.47;0.90;;;11.50;90.60;;;;;;5033551;28;20541;-87
2021/05/22 01:43:51;;;;;;;1.73;0.80;;;11.50;90.80;;;;;;5030174;28;20525;-87
2021/05/22 01:46:18;;;;;;;1.50;0.73;;;11.60;90.90;;;;;;5025606;28;20453;-87
2021/05/22 01:48:45;;;;;;;2.10;1.10;;;11.70;90.70;;;;;;5025322;28;20446;-87
2021/05/22 01:51:14;;;;;;;1.50;1.10;;;11.70;90.50;;;;;;5024687;28;20541;-87
2021/05/22 01:53:42;;;;;;;2.90;0.83;;;11.70;90.40;;;;;;5020854;28;20562;-87
2021/05/22 01:56:10;;;;;;;2.90;1.20;;;11.80;90.50;;;;;;5022746;28;20449;-87
2021/05/22 01:58:37;;;;;;;1.83;1.10;;;11.80;90.50;;;;;;5022158;28;20891;-87
2021/05/22 02:01:04;;;;;;;1.87;1.00;;;11.80;90.70;;;;;;5023036;28;20470;-87
2021/05/22 02:03:35;;;;;;;2.53;1.00;;;11.80;90.70;;;;;;5023875;28;20461;-87
2021/05/22 02:06:03;;;;;;;3.57;1.20;;;11.90;90.60;;;;;;5028583;28;20439;-87
2021/05/22 02:08:33;;;;;;;3.60;1.67;;;11.80;91.50;;;;;;5025632;28;20439;-88
2021/05/22 02:10:59;;;;;;;1.60;0.90;;;11.70;92.80;;;;;;5027930;28;20448;-87
2021/05/22 02:13:25;;;;;;;1.97;0.90;;;11.60;93.50;;;;;;5025591;28;20453;-88
2021/05/22 02:15:57;;;;;;;1.97;1.10;;;11.40;93.90;;;;;;5030652;28;20469;-88
2021/05/22 02:18:26;;;;;;;1.83;1.27;;;11.30;94.20;;;;;;5042777;28;20436;-88
2021/05/22 02:20:54;;;;;;;1.03;0.70;;;11.30;94.40;;;;;;5037930;28;20452;-87
2021/05/22 02:23:23;;;;;;;0.90;0.70;;;11.30;94.40;;;;;;5044768;28;20430;-87
2021/05/22 02:25:49;;;;;;;2.90;0.70;;;11.30;94.50;;;;;;5041222;28;20440;-87
2021/05/22 02:28:15;;;;;;;2.40;0.97;;;11.40;94.60;;;;;;5043213;28;20438;-85
2021/05/22 02:30:43;;;;;;;1.33;0.80;;;11.40;94.50;;;;;;5045838;28;20490;-85
2021/05/22 02:33:12;;;;;;;1.70;0.97;;;11.40;94.40;;;;;;5048082;28;20439;-85
2021/05/22 02:35:41;;;;;;;1.30;0.90;;;11.30;94.80;;;;;;5044591;28;20429;-88
2021/05/22 02:38:10;;;;;;;1.47;1.00;;;11.20;95.40;;;;;;5042452;28;20441;-88
2021/05/22 02:40:38;;;;;;;4.33;0.90;;;11.20;95.90;;;;;;5042202;28;20465;-86
2021/05/22 02:43:07;;;;;;;2.80;0.80;;;11.10;97.10;;;;;;5029643;28;20569;-86
2021/05/22 02:45:37;;;;;;;2.33;0.83;;;11.00;98.10;;;;;;5035290;28;20811;-86
2021/05/22 02:48:06;;;;;;;1.13;1.00;;;10.70;99.20;;;;;;5030452;28;20448;-87
2021/05/22 02:50:35;;;;;;;1.90;0.60;;;10.50;99.90;;;;;;5029592;28;20846;-87
2021/05/22 02:53:03;;;;;;;3.43;0.97;;;10.30;99.90;;;;;;5028373;28;20438;-88
2021/05/22 02:55:32;;;;;;;2.73;0.80;;;10.10;99.90;;;;;;5032804;28;20517;-88
2021/05/22 02:57:58;;;;;;;1.93;0.90;;;10.10;99.90;;;;;;5028158;28;20469;-87
2021/05/22 03:00:25;;;;;;;1.63;1.00;;;10.10;99.90;;;;;;5031219;28;20465;-88
2021/05/22 03:02:52;;;;;;;2.70;1.00;;;10.00;99.90;;;;;;5028293;28;20472;-88
2021/05/22 03:05:18;;;;;;;3.67;0.80;;;10.00;99.90;;;;;;5028991;28;20449;-88
2021/05/22 03:07:44;;;;;;;1.40;1.30;;;10.10;99.90;;;;;;5048140;28;20430;-88
2021/05/22 03:10:14;;;;;;;1.47;0.77;;;10.00;99.90;;;;;;5028315;28;20516;-88
2021/05/22 03:12:40;;;;;;;2.70;1.70;;;10.00;99.90;;;;;;5030291;28;20488;-88
2021/05/22 03:15:08;;;;;;;2.50;1.00;;;10.00;99.90;;;;;;5035690;28;20933;-87
2021/05/22 03:17:34;;;;;;;0.97;0.87;;;10.10;99.90;;;;;;5045246;28;20457;-87
2021/05/22 03:20:01;;;;;;;1.20;0.80;;;10.10;99.90;;;;;;5040071;28;20438;-88
2021/05/22 03:22:27;;;;;;;1.47;1.00;;;10.10;99.90;;;;;;5028072;28;20535;-88
2021/05/22 03:24:53;;;;;;;2.50;1.10;;;10.10;99.90;;;;;;5026469;28;20942;-88
2021/05/22 03:27:21;;;;;;;2.00;1.40;;;10.10;99.90;;;;;;5041412;28;20437;-87
2021/05/22 03:29:47;;;;;;;2.13;1.47;;;10.20;99.90;;;;;;5040517;28;20440;-88
2021/05/22 03:32:14;;;;;;;2.40;1.10;;;10.10;99.90;;;;;;5025199;28;20465;-88
2021/05/22 03:34:41;;;;;;;3.50;1.40;;;10.10;99.90;;;;;;5025512;28;21012;-88
2021/05/22 03:37:07;;;;;;;3.17;1.53;;;10.00;99.90;;;;;;5030791;28;20497;-85
2021/05/22 03:39:33;;;;;;;3.90;1.20;;;10.00;99.90;;;;;;5025502;28;20446;-85
2021/05/22 03:42:01;;;;;;;2.57;1.10;;;10.00;99.90;;;;;;5026372;28;20487;-87
2021/05/22 03:44:28;;;;;;;1.50;1.40;;;10.10;99.90;;;;;;5022885;28;20456;-87
2021/05/22 03:46:54;;;;;;;2.17;1.00;;;10.10;99.90;;;;;;5049246;28;20421;-85
2021/05/22 03:49:20;;;;;;;2.77;1.40;;;10.20;99.90;;;;;;5044099;28;20468;-86
2021/05/22 03:51:46;;;;;;;4.07;1.20;;;10.20;99.90;;;;;;5047225;28;20443;-85
2021/05/22 03:54:13;;;;;;;2.63;1.13;;;10.30;99.90;;;;;;5050568;28;20419;-86
2021/05/22 03:56:39;;;;;;;3.93;1.43;;;10.40;99.90;;;;;;5045948;28;20442;-88
2021/05/22 03:59:05;;;;;;;1.87;1.13;;;10.40;99.90;;;;;;5042371;28;20439;-85
2021/05/22 04:01:32;;;;;;;2.53;1.10;;;10.50;99.90;;;;;;5042769;28;20489;-86
2021/05/22 04:03:59;;;;;;;1.73;1.13;;;10.50;99.90;;;;;;5029734;28;20437;-86
2021/05/22 04:06:25;;;;;;;3.17;1.30;;;10.60;99.90;;;;;;5036613;28;20442;-88
2021/05/22 04:08:51;;;;;;;3.07;1.60;;;10.70;99.90;;;;;;5043918;28;20426;-86
2021/05/22 04:11:18;;;;;;;2.80;1.40;;;10.70;99.90;;;;;;5029968;28;20470;-86
2021/05/22 04:13:44;;;;;;;4.30;1.23;;;10.70;99.90;;;;;;5026131;28;20442;-87
2021/05/22 04:16:11;;;;;;;2.73;1.30;;;10.80;99.90;;;;;;5023698;28;20461;-87
2021/05/22 04:18:38;;;;;;;2.73;0.90;;;10.80;99.90;;;;;;5024832;28;20437;-86
2021/05/22 04:21:05;;;;;;;4.10;1.93;;;10.90;99.90;;;;;;5022254;28;20496;-87
2021/05/22 04:23:31;;;;;;;2.40;1.20;;;10.90;99.90;;;;;;5025058;28;20454;-87
2021/05/22 04:25:58;;;;;;;2.50;0.90;;;10.90;99.90;;;;;;5024270;28;20450;-86
2021/05/22 04:28:25;;;;;;;4.23;1.47;;;10.90;99.90;;;;;;5023544;28;20446;-87
2021/05/22 04:30:51;;;;;;;3.27;1.00;;;11.00;99.90;;;;;;5024061;28;20482;-87
2021/05/22 04:33:18;;;;;;;3.03;1.27;;;11.00;99.90;;;;;;5024091;28;20445;-87
2021/05/22 04:35:45;;;;;;;1.10;1.00;;;11.10;99.90;;;;;;5024431;28;20446;-87
2021/05/22 04:38:12;;;;;;;1.17;0.97;;;11.00;99.90;;;;;;5022679;28;20446;-87
2021/05/22 04:40:38;;;;;;;2.77;0.97;;;11.00;99.90;;;;;;5022545;28;20461;-86
2021/05/22 04:43:05;;;;;;;2.00;0.90;;;10.90;99.90;;;;;;5024836;28;20572;-87
2021/05/22 04:45:32;;;;;;;1.27;0.77;;;10.90;99.90;;;;;;5024608;28;20438;-86
2021/05/22 04:47:58;;;;;;;4.70;1.07;;;10.80;99.90;;;;;;5025330;28;20457;-87
2021/05/22 04:50:27;;;;;;;2.50;0.90;;;10.80;99.90;;;;;;5025098;28;20862;-87
2021/05/22 04:52:55;;;;;;;3.27;1.60;;;10.80;99.90;;;;;;5024642;28;20433;-87
2021/05/22 04:55:21;;;;;;;1.43;1.10;;;10.80;99.90;;;;;;5023116;28;20820;-89
2021/05/22 04:57:48;;;;;;;2.07;0.80;;;10.80;99.90;;;;;;5023137;28;21011;-87
2021/05/22 05:00:15;;;;;;;1.60;0.90;;;10.80;99.90;;;;;;5024001;28;20453;-88
2021/05/22 05:02:42;;;;;;;1.17;0.80;;;10.80;99.90;;;;;;5020355;28;20474;-89
2021/05/22 05:05:09;;;;;;;1.50;0.97;;;10.90;99.90;;;;;;5022804;28;21078;-88
2021/05/22 05:07:35;;;;;;;1.50;0.90;;;11.00;99.90;;;;;;5033901;28;20449;-88
2021/05/22 05:10:03;;;;;;;1.27;0.80;;;11.40;99.90;;;;;;5038792;28;20441;-89
2021/05/22 05:12:29;;;;;;;1.90;0.77;;;12.20;99.60;;;;;;5049586;28;20445;-89
2021/05/22 05:14:55;;;;;;;3.30;0.90;;;12.70;96.90;;;;;;5046448;28;20452;-88
2021/05/22 05:17:21;;;;;;;1.87;0.90;;;12.70;96.30;;;;;;5050514;28;20417;-90
2021/05/22 05:19:47;;;;;;;1.60;0.90;;;12.50;96.20;;;;;;5029955;28;20448;-89
2021/05/22 05:22:14;;;;;;;1.93;0.80;;;12.30;96.50;;;;;;5018906;28;20480;-85
2021/05/22 05:24:40;;;;;;;1.97;1.20;;;12.40;97.50;;;;;;5024149;28;20447;-86
2021/05/22 05:27:07;;;;;;;3.43;0.97;;;13.10;97.60;;;;;;5029789;28;20472;-86
2021/05/22 05:29:39;;;;;;;1.20;0.90;;;14.30;95.50;;;;;;5032904;28;20439;-85
2021/05/22 05:32:07;;;;;;;3.03;1.13;;;15.10;92.40;;;;;;5031656;28;20480;-85
2021/05/22 05:34:33;;;;;;;1.67;0.97;;;15.90;90.70;;;;;;5023121;28;20435;-86
2021/05/22 05:36:59;;;;;;;2.60;0.90;;;16.30;88.90;;;;;;5022483;28;20454;-85
2021/05/22 05:39:25;;;;;;;1.60;0.90;;;16.20;85.60;;;;;;5024429;28;20452;-86
2021/05/22 05:41:52;;;;;;;4.70;1.00;;;15.80;86.50;;;;;;5025059;28;20488;-86
2021/05/22 05:44:19;;;;;;;3.33;1.00;;;15.40;87.80;;;;;;5021775;28;20445;-86
2021/05/22 05:46:45;;;;;;;2.83;1.00;;;15.10;89.70;;;;;;5023577;28;20439;-90
2021/05/22 05:49:11;;;;;;;1.97;0.80;;;15.10;90.90;;;;;;5023720;28;20444;-86
2021/05/22 05:51:37;;;;;;;1.87;0.97;;;15.30;90.40;;;;;;5022471;28;20457;-86
2021/05/22 05:54:04;;;;;;;1.40;1.00;;;15.50;90.10;;;;;;5031455;28;20489;-84
2021/05/22 05:56:30;;;;;;;1.90;1.00;;;15.50;90.60;;;;;;5024941;28;20472;-87
2021/05/22 05:58:57;;;;;;;2.23;0.70;;;15.50;89.30;;;;;;5026095;28;20434;-86
2021/05/22 06:01:26;;;;;;;2.40;0.93;;;15.50;87.10;;;;;;5046786;28;20450;-93
2021/05/22 06:03:53;;;;;;;4.43;2.23;;;15.60;88.40;;;;;;5035409;28;20472;-90
2021/05/22 06:06:20;;;;;;;1.87;1.30;;;15.90;87.80;;;;;;5042345;28;20562;-86
2021/05/22 06:08:47;;;;;;;3.53;2.40;;;16.60;87.50;;;;;;5045165;28;20453;-86
2021/05/22 06:11:15;;;;;;;1.97;0.90;;;17.50;84.50;;;;;;5041084;28;20465;-86
2021/05/22 06:13:42;;;;;;;4.40;1.30;;;18.30;81.40;;;;;;5033352;28;20449;-87
2021/05/22 06:16:17;;;;;;;1.40;1.00;;;18.70;79.30;;;;;;5040788;28;20449;-85
2021/05/22 06:18:44;;;;;;;1.50;1.23;;;19.50;76.90;;;;;;5036589;28;20463;-84
2021/05/22 06:21:10;;;;;;;1.90;1.17;;;20.10;72.00;;;;;;5036479;28;20472;-86
2021/05/22 06:23:36;;;;;;;3.40;1.63;;;20.50;71.80;;;;;;5019484;28;20834;-86
2021/05/22 06:26:04;;;;;;;3.17;1.20;;;20.80;69.70;;;;;;5019260;28;20446;-86
2021/05/22 06:28:31;;;;;;;1.87;1.00;;;21.30;68.60;;;;;;5024426;28;20451;-86
2021/05/22 06:30:58;;;;;;;1.90;0.93;;;21.60;65.60;;;;;;5014757;28;20481;-85
2021/05/22 06:33:24;;;;;;;4.40;1.70;;;21.20;64.40;;;;;;5018407;28;20804;-86
2021/05/22 06:35:51;;;;;;;2.03;1.33;;;20.80;67.50;;;;;;5026721;28;20446;-85
2021/05/22 06:38:17;;;;;;;4.40;1.10;;;21.40;66.60;;;;;;5036509;28;20441;-86
2021/05/22 06:40:45;;;;;;;2.57;1.13;;;21.00;64.40;;;;;;5032154;28;20470;-86
2021/05/22 06:43:11;;;;;;;4.67;1.70;;;20.00;66.20;;;;;;5023071;28;20475;-87
2021/05/22 06:45:41;;;;;;;1.73;1.33;;;18.80;68.20;;;;;;5035382;28;20497;-86
2021/05/22 06:48:08;;;;;;;3.27;1.20;;;18.30;70.70;;;;;;5019479;28;20486;-86
2021/05/22 06:50:34;;;;;;;4.07;1.30;;;17.60;70.60;;;;;;5026872;28;20462;-86
2021/05/22 06:53:02;;;;;;;1.80;1.30;;;17.30;73.20;;;;;;5026332;28;20453;-86
2021/05/22 06:55:28;;;;;;;4.70;1.73;;;17.80;74.20;;;;;;5017112;28;20444;-87
2021/05/22 06:57:55;;;;;;;3.77;1.40;;;18.50;70.70;;;;;;5014354;28;20459;-85
2021/05/22 07:00:21;;;;;;;4.20;1.27;;;19.20;66.50;;;;;;5013644;28;20524;-87
2021/05/22 07:02:48;;;;;;;3.23;1.27;;;19.20;67.20;;;;;;5014629;28;20482;-86
2021/05/22 07:05:14;;;;;;;2.53;1.33;;;18.90;69.10;;;;;;5016351;28;20445;-86
2021/05/22 07:07:42;;;;;;;3.53;1.50;;;17.80;68.10;;;;;;5036341;28;20434;-86
2021/05/22 07:10:10;;;;;;;3.33;1.20;;;17.40;71.70;;;;;;5023470;28;20465;-85
2021/05/22 07:12:37;;;;;;;2.93;1.40;;;16.90;71.80;;;;;;5014087;28;21058;-86
2021/05/22 07:15:04;;;;;;;2.00;1.17;;;16.70;72.00;;;;;;5012895;28;21016;-85
2021/05/22 07:17:31;;;;;;;3.07;1.50;;;17.00;72.60;;;;;;5017002;28;20446;-86
2021/05/22 07:19:57;;;;;;;4.20;1.43;;;17.40;71.60;;;;;;5017653;28;20453;-85
2021/05/22 07:22:23;;;;;;;4.87;1.30;;;16.70;68.80;;;;;;5021139;28;20486;-85
2021/05/22 07:24:49;;;;;;;2.20;1.43;;;16.20;70.60;;;;;;5013971;28;20449;-85
2021/05/22 07:27:17;;;;;;;5.40;1.80;;;16.30;71.80;;;;;;5014729;28;20446;-85
2021/05/22 07:29:45;;;;;;;6.40;1.50;;;16.20;70.20;;;;;;5015428;28;20454;-85
2021/05/22 07:32:11;;;;;;;4.13;1.17;;;16.20;70.60;;;;;;5016233;28;20822;-85
2021/05/22 07:34:40;;;;;;;3.77;1.50;;;16.70;68.70;;;;;;5018611;28;20450;-85
2021/05/22 07:37:06;;;;;;;3.63;1.30;;;16.20;69.80;;;;;;5016535;28;20556;-85
2021/05/22 07:39:32;;;;;;;3.00;1.20;;;15.80;70.80;;;;;;5016978;28;20445;-86
2021/05/22 07:41:59;;;;;;;3.53;1.43;;;15.90;70.80;;;;;;5034835;28;20482;-86
2021/05/22 07:44:26;;;;;;;3.20;1.20;;;16.60;69.50;;;;;;5025311;28;20492;-87
2021/05/22 07:46:52;;;;;;;3.73;1.40;;;17.40;66.70;;;;;;5018816;28;20477;-86
2021/05/22 07:49:21;;;;;;;2.30;1.23;;;17.10;65.40;;;;;;5028530;28;20448;-86
2021/05/22 07:51:47;;;;;;;5.87;1.83;;;16.70;66.00;;;;;;5040151;28;20458;-87
2021/05/22 07:54:14;;;;;;;4.83;1.70;;;16.70;66.90;;;;;;5040377;28;20451;-88
2021/05/22 07:56:40;;;;;;;2.77;1.17;;;17.00;66.80;;;;;;5039161;28;20442;-87
2021/05/22 07:59:06;;;;;;;11.87;2.70;;;17.40;66.20;;;;;;5028601;28;20446;-87
2021/05/22 08:01:34;;;;;;;3.43;1.30;;;16.80;67.50;;;;;;5026788;28;20476;-86
2021/05/22 08:04:00;;;;;;;1.40;0.93;;;15.80;71.90;;;;;;5028894;28;20457;-84
2021/05/22 08:06:27;;;;;;;5.10;1.70;;;16.00;73.10;;;;;;5025549;28;20449;-84
2021/05/22 08:08:53;;;;;;;3.33;1.20;;;17.30;69.50;;;;;;5019247;28;20439;-87
2021/05/22 08:11:19;;;;;;;2.17;0.93;;;18.30;62.70;;;;;;5028093;28;20485;-85
2021/05/22 08:13:45;;;;;;;2.70;1.00;;;19.90;58.90;;;;;;5035190;28;20436;-84
2021/05/22 08:16:11;;;;;;;2.50;1.10;;;21.30;56.70;;;;;;5027922;28;20456;-85
2021/05/22 08:18:38;;;;;;;4.83;1.83;;;21.60;52.50;;;;;;5035023;28;20448;-87
2021/05/22 08:21:06;;;;;;;3.97;1.73;;;20.80;51.80;;;;;;5029489;28;20479;-86
2021/05/22 08:23:32;;;;;;;2.63;1.00;;;21.10;52.70;;;;;;5023429;28;20487;-86
2021/05/22 08:25:59;;;;;;;3.07;1.40;;;21.00;50.50;;;;;;5019164;28;20485;-87
2021/05/22 08:28:28;;;;;;;2.80;1.40;;;21.80;50.30;;;;;;5018357;28;20448;-86
2021/05/22 08:30:58;;;;;;;4.17;1.30;;;21.60;50.20;;;;;;5025988;28;21172;-85
2021/05/22 08:33:24;;;;;;;5.23;1.17;;;21.60;49.60;;;;;;5037483;28;20453;-87
2021/05/22 08:35:52;;;;;;;3.63;0.90;;;21.20;48.40;;;;;;5022304;28;20511;-85
2021/05/22 08:38:18;;;;;;;3.83;1.03;;;21.10;47.40;;;;;;5027253;28;20459;-86
2021/05/22 08:40:44;;;;;;;1.83;0.87;;;20.80;48.10;;;;;;5017945;28;20535;-84
2021/05/22 08:43:10;;;;;;;3.63;1.10;;;20.80;49.30;;;;;;5016655;28;20483;-86
2021/05/22 08:45:37;;;;;;;2.17;1.20;;;20.70;48.60;;;;;;5017241;28;20451;-86
2021/05/22 08:48:04;;;;;;;3.37;1.47;;;21.20;48.60;;;;;;5016185;28;20457;-86
2021/05/22 08:50:30;;;;;;;4.27;1.40;;;21.40;48.60;;;;;;5015716;28;20468;-86
2021/05/22 08:52:57;;;;;;;3.70;1.30;;;21.70;47.90;;;;;;5015461;28;20453;-86
2021/05/22 08:55:24;;;;;;;2.87;1.50;;;22.50;46.90;;;;;;5015114;28;20449;-85
2021/05/22 08:57:50;;;;;;;1.77;1.33;;;22.50;46.30;;;;;;5026869;28;20450;-86
2021/05/22 09:00:21;;;;;;;2.83;1.00;;;23.10;46.90;;;;;;5031102;28;20457;-86
2021/05/22 09:02:47;;;;;;;2.43;1.30;;;23.30;46.30;;;;;;5019721;28;20477;-86
2021/05/22 09:05:21;;;;;;;2.80;1.20;;;22.90;45.00;;;;;;5017496;28;20810;-85
2021/05/22 09:07:48;;;;;;;2.53;1.20;;;22.10;45.30;;;;;;5038016;28;20443;-87
2021/05/22 09:10:19;;;;;;;3.40;1.00;;;23.30;45.60;;;;;;5031163;28;20466;-87
2021/05/22 09:12:47;;;;;;;4.03;1.40;;;23.60;43.50;;;;;;5016729;28;20442;-87
2021/05/22 09:15:16;;;;;;;3.10;1.50;;;22.70;43.70;;;;;;5015279;28;20465;-87
2021/05/22 09:17:49;;;;;;;3.80;1.70;;;22.90;44.70;;;;;;5015338;28;20446;-87
2021/05/22 09:20:18;;;;;;;2.23;1.20;;;22.70;43.80;;;;;;5018156;28;20497;-86
2021/05/22 09:22:54;;;;;;;4.83;1.57;;;23.30;43.90;;;;;;5037502;28;20499;-88
2021/05/22 09:25:21;;;;;;;2.30;1.17;;;24.60;41.90;;;;;;5028966;28;20451;-87
2021/05/22 09:27:47;;;;;;;2.07;1.33;;;25.80;41.00;;;;;;5033479;28;20438;-85
2021/05/22 09:30:16;;;;;;;7.77;1.50;;;25.70;38.70;;;;;;5036848;28;20470;-86
2021/05/22 09:32:43;;;;;;;3.97;1.50;;;26.50;38.30;;;;;;5033887;28;20418;-87
2021/05/22 09:35:11;;;;;;;3.63;1.20;;;26.10;36.60;;;;;;5024362;28;20465;-86
2021/05/22 09:37:42;;;;;;;2.33;1.20;;;25.70;38.00;;;;;;5028512;28;20442;-88
2021/05/22 09:40:10;;;;;;;3.77;1.40;;;26.70;37.80;;;;;;5028585;28;20471;-86
2021/05/22 09:42:40;;;;;;;5.07;1.33;;;26.50;36.60;;;;;;5026749;28;21063;-88
2021/05/22 09:45:24;;;;;;;3.13;1.60;;;25.10;37.50;;;;;;5022032;28;20442;-85
2021/05/22 09:47:51;;;;;;;1.30;0.80;;;24.00;38.70;;;;;;5023938;28;20448;-85
2021/05/22 09:50:32;;;;;;;6.33;1.33;;;24.40;40.20;;;;;;5021661;28;20463;-86
2021/05/22 09:52:59;;;;;;;5.10;1.97;;;22.80;37.50;;;;;;5024886;28;20993;-85
2021/05/22 09:55:25;;;;;;;2.83;1.07;;;23.40;40.30;;;;;;5022656;28;21019;-85
2021/05/22 09:57:55;;;;;;;2.30;1.30;;;24.00;38.90;;;;;;5023854;28;20433;-85
2021/05/22 10:00:24;;;;;;;2.93;1.40;;;22.80;39.60;;;;;;5023511;28;20468;-85
2021/05/22 10:02:51;;;;;;;3.93;1.50;;;24.00;39.10;;;;;;5025014;28;21020;-86
2021/05/22 10:05:20;;;;;;;3.03;1.27;;;24.50;37.90;;;;;;5026582;28;20467;-89
2021/05/22 10:07:48;;;;;;;3.43;1.40;;;24.20;38.50;;;;;;5031312;28;20496;-87
2021/05/22 10:10:16;;;;;;;3.10;1.30;;;23.30;39.40;;;;;;5024337;28;20454;-88
2021/05/22 10:12:43;;;;;;;4.83;1.70;;;22.60;40.50;;;;;;5022801;28;20845;-85
2021/05/22 10:15:12;;;;;;;3.83;3.33;;;23.40;40.10;;;;;;5021766;28;20479;-88
2021/05/22 10:17:49;;;;;;;5.83;2.30;;;24.60;39.40;;;;;;5026281;28;20522;-87
2021/05/22 10:20:16;;;;;;;3.50;1.47;;;26.50;37.40;;;;;;5042937;28;20445;-88
2021/05/22 10:22:43;;;;;;;3.20;2.13;;;26.50;35.60;;;;;;5037392;28;20458;-88
2021/05/22 10:25:10;;;;;;;11.73;1.63;;;26.80;36.00;;;;;;5024429;28;20441;-88
2021/05/22 10:27:38;;;;;;;2.93;1.20;;;28.30;34.90;;;;;;5032801;28;20450;-88
2021/05/22 10:30:07;;;;;;;3.13;1.30;;;27.90;33.70;;;;;;5026340;28;20454;-87
2021/05/22 10:32:37;;;;;;;1.90;1.30;;;26.20;35.10;;;;;;5039883;28;20464;-87
2021/05/22 10:35:09;;;;;;;3.73;1.50;;;26.30;37.00;;;;;;5029586;28;20449;-87
2021/05/22 10:37:45;;;;;;;2.27;1.40;;;25.90;35.40;;;;;;5031021;28;20446;-87
2021/05/22 10:40:14;;;;;;;4.10;2.77;;;25.40;36.20;;;;;;5034863;28;20551;-87
2021/05/22 10:42:50;;;;;;;3.10;1.13;;;24.50;36.50;;;;;;5024220;28;20475;-87
2021/05/22 10:45:41;;;;;;;1.13;0.80;;;23.10;37.10;;;;;;5022634;28;20441;-87
2021/05/22 10:48:25;;;;;;;2.50;1.20;;;22.20;38.00;;;;;;5021910;28;21077;-87
2021/05/22 10:50:52;;;;;;;3.17;1.07;;;22.50;38.50;;;;;;5021752;28;20469;-87
2021/05/22 10:53:21;;;;;;;3.63;1.00;;;23.00;37.50;;;;;;5033227;28;20451;-87
2021/05/22 10:56:03;;;;;;;4.13;1.20;;;24.00;36.60;;;;;;5027039;28;20822;-87
2021/05/22 10:58:30;;;;;;;1.33;0.90;;;24.10;36.50;;;;;;5023699;28;20477;-87
2021/05/22 11:01:31;;;;;;;2.50;1.27;;;25.30;35.80;;;;;;5022678;28;20913;-87
2021/05/22 11:04:30;;;;;;;2.50;0.97;;;26.90;33.00;;;;;;5023826;28;20555;-87
2021/05/22 12:29:55;;;;;;;;;;;;;;;;;;;;;
2021/05/22 12:43:41;;;;;;;4.00;1.40;;;23.90;32.70;;;;;;4868648;29;20519;-89
2021/05/22 13:28:50;;;;;;;2.10;1.10;;;25.60;37.00;;;;;;3701376;22;20486;-88
2021/05/22 13:59:43;;;;;;;2.50;1.50;;;29.10;30.70;;;;;;4798420;29;20447;-89
2021/05/22 14:19:34;;;;;;;;;;;;;;;;;;;;;
2021/05/22 14:22:57;;;;;;;;;;;;;;;;;;;;;
2021/05/22 14:46:33;;;;;;;3.13;1.97;;;21.80;39.80;;;;;;4947637;29;20420;-88
2021/05/22 14:49:53;;;;;;;4.43;2.50;;;21.90;40.10;;;;;;4854358;29;20442;-89
2021/05/22 15:24:31;;;;;;;5.77;1.93;;;21.60;42.00;;;;;;4905644;29;20930;-89
2021/05/22 15:37:47;;;;;;;4.50;1.20;;;20.80;42.30;;;;;;5024147;28;20519;-90
2021/05/22 16:00:40;;;;;;;;;;;;;;;;;;;;;
2021/05/22 16:10:34;;;;;;;2.47;0.80;;;18.90;43.50;;;;;;4890883;29;20433;-89
2021/05/22 16:16:05;;;;;;;1.83;0.70;;;18.60;41.30;;;;;;4949962;28;20964;-88
2021/05/22 16:18:32;;;;;;;2.57;0.90;;;18.50;42.20;;;;;;5021112;28;20514;-89
2021/05/22 16:20:58;;;;;;;3.60;1.17;;;18.50;42.80;;;;;;5026589;28;20426;-88
2021/05/22 16:23:25;;;;;;;2.57;1.30;;;18.30;42.10;;;;;;5028566;28;20444;-88
2021/05/22 16:25:54;;;;;;;1.00;0.80;;;18.30;42.30;;;;;;5031189;28;20481;-88
2021/05/22 16:28:21;;;;;;;1.57;0.97;;;18.30;42.50;;;;;;5044547;28;20452;-89
2021/05/22 16:30:47;;;;;;;3.60;1.20;;;18.50;43.50;;;;;;5030532;28;20437;-89
2021/05/22 16:33:14;;;;;;;1.53;1.10;;;18.60;43.50;;;;;;5028502;28;20849;-88
2021/05/22 16:35:40;;;;;;;1.37;0.90;;;18.60;43.60;;;;;;5026759;28;20458;-90
2021/05/22 16:38:07;;;;;;;1.53;0.87;;;18.50;43.40;;;;;;5035425;28;20508;-89
2021/05/22 16:40:34;;;;;;;2.53;0.70;;;18.40;44.10;;;;;;5039424;28;20445;-88
2021/05/22 16:43:01;;;;;;;2.97;1.00;;;18.20;44.10;;;;;;5045780;28;20957;-87
2021/05/22 16:45:28;;;;;;;1.50;1.00;;;18.20;44.20;;;;;;5024424;28;20454;-90
2021/05/22 16:47:54;;;;;;;2.50;1.27;;;18.20;44.90;;;;;;5028241;28;20463;-89
2021/05/22 16:50:21;;;;;;;2.73;0.77;;;18.30;44.80;;;;;;5037865;28;20465;-88
2021/05/22 16:52:48;;;;;;;2.40;0.90;;;18.40;44.10;;;;;;5036483;28;20549;-90
2021/05/22 16:55:14;;;;;;;4.93;1.33;;;18.40;44.30;;;;;;5039391;28;20445;-89
2021/05/22 16:57:46;;;;;;;2.73;1.97;;;18.50;44.50;;;;;;5037206;28;20479;-89
2021/05/22 17:00:15;;;;;;;3.53;2.20;;;18.40;43.90;;;;;;5032850;28;20448;-90
2021/05/22 17:02:44;;;;;;;4.67;2.50;;;18.40;44.60;;;;;;5042562;28;20530;-89
2021/05/22 17:05:12;;;;;;;2.70;1.30;;;18.40;44.30;;;;;;5045756;28;20496;-91
2021/05/22 17:07:38;;;;;;;1.73;1.00;;;18.40;44.10;;;;;;5047601;22;20503;-84
2021/05/22 17:10:06;;;;;;;1.37;1.00;;;18.30;43.70;;;;;;5002558;28;20960;-84
2021/05/22 17:12:32;;;;;;;4.03;2.10;;;18.30;44.30;;;;;;5004099;28;20444;-85
2021/05/22 17:14:59;;;;;;;1.50;1.10;;;18.50;44.10;;;;;;5028672;28;20444;-85
2021/05/22 17:17:26;;;;;;;2.77;1.30;;;18.50;44.60;;;;;;5019537;28;20482;-85
2021/05/22 17:19:52;;;;;;;1.67;1.10;;;18.60;44.20;;;;;;5007657;28;20450;-85
2021/05/22 17:22:22;;;;;;;2.43;0.77;;;18.60;44.00;;;;;;5004388;28;20451;-85
2021/05/22 17:24:49;;;;;;;2.10;1.40;;;18.50;44.20;;;;;;5007027;28;20448;-85
2021/05/22 17:27:15;;;;;;;2.90;1.93;;;18.50;44.30;;;;;;5010355;28;20474;-86
2021/05/22 17:29:41;;;;;;;3.40;1.13;;;18.40;44.10;;;;;;5007614;28;20528;-84
2021/05/22 17:32:08;;;;;;;4.20;2.33;;;18.40;44.40;;;;;;5007867;28;20427;-86